sensor_id;sensor_type;location;lat;lon;timestamp;temperature;humidity
50460;DHT22;36385;51.644;7.098;2022-12-07T00:02:19;5.50;99.90
50460;DHT22;36385;51.644;7.098;2022-12-07T00:04:44;5.50;99.90
50460;DHT22;36385;51.644;7.098;2022-12-07T00:07:10;5.50;99.90
50460;DHT22;36385;51.644;7.098;2022-12-07T00:09:36;5.40;99.90
50460;DHT22;36385;51.644;7.098;2022-12-07T00:12:02;5.50;99.90
50460;DHT22;36385;51.644;7.098;2022-12-07T00:14:28;5.50;99.90
50460;DHT22;36385;51.644;7.098;2022-12-07T00:16:53;5.50;99.90
50460;DHT22;36385;51.644;7.098;2022-12-07T00:19:19;5.50;99.90
50460;DHT22;36385;51.644;7.098;2022-12-07T00:21:45;5.50;99.90
50460;DHT22;36385;51.644;7.098;2022-12-07T00:24:11;5.50;99.90
50460;DHT22;36385;51.644;7.098;2022-12-07T00:26:40;5.40;99.90
50460;DHT22;36385;51.644;7.098;2022-12-07T00:29:19;5.40;99.90
50460;DHT22;36385;51.644;7.098;2022-12-07T00:31:49;5.40;99.90
50460;DHT22;36385;51.644;7.098;2022-12-07T00:34:17;5.40;99.90
50460;DHT22;36385;51.644;7.098;2022-12-07T00:36:43;5.50;99.90
50460;DHT22;36385;51.644;7.098;2022-12-07T00:39:09;5.40;99.90
50460;DHT22;36385;51.644;7.098;2022-12-07T00:41:35;5.50;99.90
50460;DHT22;36385;51.644;7.098;2022-12-07T00:44:01;5.40;99.90
50460;DHT22;36385;51.644;7.098;2022-12-07T00:46:29;5.40;99.90
50460;DHT22;36385;51.644;7.098;2022-12-07T00:48:55;5.40;99.90
50460;DHT22;36385;51.644;7.098;2022-12-07T00:51:22;5.50;99.90
50460;DHT22;36385;51.644;7.098;2022-12-07T00:53:48;5.50;99.90
50460;DHT22;36385;51.644;7.098;2022-12-07T00:56:20;5.40;99.90
50460;DHT22;36385;51.644;7.098;2022-12-07T00:58:53;5.50;99.90
50460;DHT22;36385;51.644;7.098;2022-12-07T01:01:19;5.50;99.90
50460;DHT22;36385;51.644;7.098;2022-12-07T01:03:44;5.50;99.90
50460;DHT22;36385;51.644;7.098;2022-12-07T01:06:18;5.50;99.90
50460;DHT22;36385;51.644;7.098;2022-12-07T01:08:44;5.40;99.90
50460;DHT22;36385;51.644;7.098;2022-12-07T01:11:13;5.40;99.90
50460;DHT22;36385;51.644;7.098;2022-12-07T01:13:39;5.40;99.90
50460;DHT22;36385;51.644;7.098;2022-12-07T01:16:06;5.50;99.90
50460;DHT22;36385;51.644;7.098;2022-12-07T01:18:34;5.40;99.90
50460;DHT22;36385;51.644;7.098;2022-12-07T01:21:20;5.40;99.90
50460;DHT22;36385;51.644;7.098;2022-12-07T01:23:47;5.40;99.90
50460;DHT22;36385;51.644;7.098;2022-12-07T01:26:15;5.50;99.90
50460;DHT22;36385;51.644;7.098;2022-12-07T01:28:41;5.50;99.90
50460;DHT22;36385;51.644;7.098;2022-12-07T01:31:10;5.50;99.90
50460;DHT22;36385;51.644;7.098;2022-12-07T01:33:37;5.50;99.90
50460;DHT22;36385;51.644;7.098;2022-12-07T01:38:36;5.40;99.90
50460;DHT22;36385;51.644;7.098;2022-12-07T01:41:02;5.40;99.90
50460;DHT22;36385;51.644;7.098;2022-12-07T01:43:30;5.40;99.90
50460;DHT22;36385;51.644;7.098;2022-12-07T01:45:56;5.50;99.90
50460;DHT22;36385;51.644;7.098;2022-12-07T01:48:29;5.50;99.90
50460;DHT22;36385;51.644;7.098;2022-12-07T01:50:57;5.40;99.90
50460;DHT22;36385;51.644;7.098;2022-12-07T01:53:28;5.30;99.90
50460;DHT22;36385;51.644;7.098;2022-12-07T01:55:55;5.40;99.90
50460;DHT22;36385;51.644;7.098;2022-12-07T01:58:22;5.40;99.90
50460;DHT22;36385;51.644;7.098;2022-12-07T02:00:48;5.40;99.90
50460;DHT22;36385;51.644;7.098;2022-12-07T02:03:36;5.30;99.90
50460;DHT22;36385;51.644;7.098;2022-12-07T02:06:04;5.30;99.90
50460;DHT22;36385;51.644;7.098;2022-12-07T02:08:31;5.30;99.90
50460;DHT22;36385;51.644;7.098;2022-12-07T02:10:57;5.30;99.90
50460;DHT22;36385;51.644;7.098;2022-12-07T02:13:25;5.40;99.90
50460;DHT22;36385;51.644;7.098;2022-12-07T02:22:21;5.30;99.90
50460;DHT22;36385;51.644;7.098;2022-12-07T02:25:22;5.40;99.90
50460;DHT22;36385;51.644;7.098;2022-12-07T02:28:04;5.40;99.90
50460;DHT22;36385;51.644;7.098;2022-12-07T02:30:34;5.30;99.90
50460;DHT22;36385;51.644;7.098;2022-12-07T02:35:47;5.20;99.90
50460;DHT22;36385;51.644;7.098;2022-12-07T02:38:18;5.20;99.90
50460;DHT22;36385;51.644;7.098;2022-12-07T02:40:53;5.20;99.90
50460;DHT22;36385;51.644;7.098;2022-12-07T02:43:21;5.20;99.90
50460;DHT22;36385;51.644;7.098;2022-12-07T02:45:50;5.20;99.90
50460;DHT22;36385;51.644;7.098;2022-12-07T02:48:18;5.10;99.90
50460;DHT22;36385;51.644;7.098;2022-12-07T02:50:54;5.10;99.90
50460;DHT22;36385;51.644;7.098;2022-12-07T02:53:32;5.00;99.90
50460;DHT22;36385;51.644;7.098;2022-12-07T02:56:06;5.00;99.90
50460;DHT22;36385;51.644;7.098;2022-12-07T03:04:24;4.90;99.90
50460;DHT22;36385;51.644;7.098;2022-12-07T03:06:51;4.90;99.90
50460;DHT22;36385;51.644;7.098;2022-12-07T03:12:32;4.80;99.90
50460;DHT22;36385;51.644;7.098;2022-12-07T03:15:06;4.70;99.90
50460;DHT22;36385;51.644;7.098;2022-12-07T03:17:35;4.70;99.90
50460;DHT22;36385;51.644;7.098;2022-12-07T03:20:05;4.60;99.90
50460;DHT22;36385;51.644;7.098;2022-12-07T03:22:33;4.50;99.90
50460;DHT22;36385;51.644;7.098;2022-12-07T03:25:08;4.50;99.90
50460;DHT22;36385;51.644;7.098;2022-12-07T03:27:44;4.40;99.90
50460;DHT22;36385;51.644;7.098;2022-12-07T03:30:20;4.40;99.90
50460;DHT22;36385;51.644;7.098;2022-12-07T03:35:22;4.40;99.90
50460;DHT22;36385;51.644;7.098;2022-12-07T03:37:57;4.40;99.90
50460;DHT22;36385;51.644;7.098;2022-12-07T03:40:46;4.30;99.90
50460;DHT22;36385;51.644;7.098;2022-12-07T03:43:16;4.20;99.90
50460;DHT22;36385;51.644;7.098;2022-12-07T03:45:45;4.20;99.90
50460;DHT22;36385;51.644;7.098;2022-12-07T03:50:53;4.20;99.90
50460;DHT22;36385;51.644;7.098;2022-12-07T03:53:23;4.20;99.90
50460;DHT22;36385;51.644;7.098;2022-12-07T03:55:51;4.30;99.90
50460;DHT22;36385;51.644;7.098;2022-12-07T03:58:20;4.30;99.90
50460;DHT22;36385;51.644;7.098;2022-12-07T04:00:47;4.30;99.90
50460;DHT22;36385;51.644;7.098;2022-12-07T04:03:13;4.30;99.90
50460;DHT22;36385;51.644;7.098;2022-12-07T04:05:39;4.30;99.90
50460;DHT22;36385;51.644;7.098;2022-12-07T04:08:06;4.30;99.90
50460;DHT22;36385;51.644;7.098;2022-12-07T04:10:31;4.30;99.90
50460;DHT22;36385;51.644;7.098;2022-12-07T04:12:57;4.30;99.90
50460;DHT22;36385;51.644;7.098;2022-12-07T04:15:23;4.40;99.90
50460;DHT22;36385;51.644;7.098;2022-12-07T04:17:48;4.30;99.90
50460;DHT22;36385;51.644;7.098;2022-12-07T04:20:14;4.20;99.90
50460;DHT22;36385;51.644;7.098;2022-12-07T04:22:40;4.20;99.90
50460;DHT22;36385;51.644;7.098;2022-12-07T04:25:05;4.20;99.90
50460;DHT22;36385;51.644;7.098;2022-12-07T04:27:31;4.20;99.90
50460;DHT22;36385;51.644;7.098;2022-12-07T04:29:57;4.20;99.90
50460;DHT22;36385;51.644;7.098;2022-12-07T04:32:23;4.20;99.90
50460;DHT22;36385;51.644;7.098;2022-12-07T04:34:49;4.20;99.90
50460;DHT22;36385;51.644;7.098;2022-12-07T04:37:14;4.20;99.90
50460;DHT22;36385;51.644;7.098;2022-12-07T04:39:41;4.20;99.90
50460;DHT22;36385;51.644;7.098;2022-12-07T04:42:06;4.30;99.90
50460;DHT22;36385;51.644;7.098;2022-12-07T04:44:32;4.30;99.90
50460;DHT22;36385;51.644;7.098;2022-12-07T04:46:58;4.30;99.90
50460;DHT22;36385;51.644;7.098;2022-12-07T04:49:24;4.20;99.90
50460;DHT22;36385;51.644;7.098;2022-12-07T04:51:50;4.30;99.90
50460;DHT22;36385;51.644;7.098;2022-12-07T04:54:16;4.30;99.90
50460;DHT22;36385;51.644;7.098;2022-12-07T04:56:43;4.30;99.90
50460;DHT22;36385;51.644;7.098;2022-12-07T04:59:13;4.30;99.90
50460;DHT22;36385;51.644;7.098;2022-12-07T05:01:39;4.30;99.90
50460;DHT22;36385;51.644;7.098;2022-12-07T05:04:05;4.30;99.90
50460;DHT22;36385;51.644;7.098;2022-12-07T05:06:31;4.30;99.90
50460;DHT22;36385;51.644;7.098;2022-12-07T05:08:56;4.30;99.90
50460;DHT22;36385;51.644;7.098;2022-12-07T05:11:22;4.30;99.90
50460;DHT22;36385;51.644;7.098;2022-12-07T05:14:09;4.30;99.90
50460;DHT22;36385;51.644;7.098;2022-12-07T05:16:35;4.30;99.90
50460;DHT22;36385;51.644;7.098;2022-12-07T05:19:01;4.30;99.90
50460;DHT22;36385;51.644;7.098;2022-12-07T05:21:27;4.30;99.90
50460;DHT22;36385;51.644;7.098;2022-12-07T05:23:52;4.30;99.90
50460;DHT22;36385;51.644;7.098;2022-12-07T05:26:18;4.30;99.90
50460;DHT22;36385;51.644;7.098;2022-12-07T05:28:44;4.30;99.90
50460;DHT22;36385;51.644;7.098;2022-12-07T05:31:09;4.30;99.90
50460;DHT22;36385;51.644;7.098;2022-12-07T05:33:35;4.20;99.90
50460;DHT22;36385;51.644;7.098;2022-12-07T05:36:01;4.20;99.90
50460;DHT22;36385;51.644;7.098;2022-12-07T05:38:31;4.20;99.90
50460;DHT22;36385;51.644;7.098;2022-12-07T05:41:03;4.30;99.90
50460;DHT22;36385;51.644;7.098;2022-12-07T05:43:29;4.20;99.90
50460;DHT22;36385;51.644;7.098;2022-12-07T05:45:56;4.30;99.90
50460;DHT22;36385;51.644;7.098;2022-12-07T05:48:22;4.20;99.90
50460;DHT22;36385;51.644;7.098;2022-12-07T05:50:48;4.20;99.90
50460;DHT22;36385;51.644;7.098;2022-12-07T05:53:14;4.20;99.90
50460;DHT22;36385;51.644;7.098;2022-12-07T05:55:40;4.20;99.90
50460;DHT22;36385;51.644;7.098;2022-12-07T05:58:06;4.20;99.90
50460;DHT22;36385;51.644;7.098;2022-12-07T06:00:50;4.20;99.90
50460;DHT22;36385;51.644;7.098;2022-12-07T06:03:15;4.20;99.90
50460;DHT22;36385;51.644;7.098;2022-12-07T06:05:41;4.20;99.90
50460;DHT22;36385;51.644;7.098;2022-12-07T06:08:07;4.20;99.90
50460;DHT22;36385;51.644;7.098;2022-12-07T06:10:33;4.10;99.90
50460;DHT22;36385;51.644;7.098;2022-12-07T06:12:58;4.20;99.90
50460;DHT22;36385;51.644;7.098;2022-12-07T06:15:24;4.20;99.90
50460;DHT22;36385;51.644;7.098;2022-12-07T06:17:50;4.10;99.90
50460;DHT22;36385;51.644;7.098;2022-12-07T06:20:15;4.20;99.90
50460;DHT22;36385;51.644;7.098;2022-12-07T06:22:41;4.20;99.90
50460;DHT22;36385;51.644;7.098;2022-12-07T06:25:07;4.20;99.90
50460;DHT22;36385;51.644;7.098;2022-12-07T06:27:33;4.20;99.90
50460;DHT22;36385;51.644;7.098;2022-12-07T06:29:59;4.20;99.90
50460;DHT22;36385;51.644;7.098;2022-12-07T06:32:25;4.20;99.90
50460;DHT22;36385;51.644;7.098;2022-12-07T06:34:50;4.20;99.90
50460;DHT22;36385;51.644;7.098;2022-12-07T06:37:16;4.20;99.90
50460;DHT22;36385;51.644;7.098;2022-12-07T06:39:42;4.10;99.90
50460;DHT22;36385;51.644;7.098;2022-12-07T06:42:07;4.10;99.90
50460;DHT22;36385;51.644;7.098;2022-12-07T06:44:33;4.10;99.90
50460;DHT22;36385;51.644;7.098;2022-12-07T06:46:59;4.10;99.90
50460;DHT22;36385;51.644;7.098;2022-12-07T06:49:24;4.00;99.90
50460;DHT22;36385;51.644;7.098;2022-12-07T06:51:50;4.00;99.90
50460;DHT22;36385;51.644;7.098;2022-12-07T06:54:16;3.90;99.90
50460;DHT22;36385;51.644;7.098;2022-12-07T06:56:42;3.90;99.90
50460;DHT22;36385;51.644;7.098;2022-12-07T06:59:08;3.90;99.90
50460;DHT22;36385;51.644;7.098;2022-12-07T07:01:34;3.90;99.90
50460;DHT22;36385;51.644;7.098;2022-12-07T07:04:01;3.90;99.90
50460;DHT22;36385;51.644;7.098;2022-12-07T07:06:27;3.90;99.90
50460;DHT22;36385;51.644;7.098;2022-12-07T07:08:52;3.80;99.90
50460;DHT22;36385;51.644;7.098;2022-12-07T07:11:18;3.80;99.90
50460;DHT22;36385;51.644;7.098;2022-12-07T07:13:44;3.80;99.90
50460;DHT22;36385;51.644;7.098;2022-12-07T07:16:10;3.80;99.90
50460;DHT22;36385;51.644;7.098;2022-12-07T07:18:36;3.80;99.90
50460;DHT22;36385;51.644;7.098;2022-12-07T07:21:02;3.80;99.90
50460;DHT22;36385;51.644;7.098;2022-12-07T07:23:28;3.80;99.90
50460;DHT22;36385;51.644;7.098;2022-12-07T07:25:54;3.70;99.90
50460;DHT22;36385;51.644;7.098;2022-12-07T07:28:20;3.70;99.90
50460;DHT22;36385;51.644;7.098;2022-12-07T07:30:45;3.70;99.90
50460;DHT22;36385;51.644;7.098;2022-12-07T07:33:11;3.70;99.90
50460;DHT22;36385;51.644;7.098;2022-12-07T07:35:37;3.70;99.90
50460;DHT22;36385;51.644;7.098;2022-12-07T07:38:04;3.70;99.90
50460;DHT22;36385;51.644;7.098;2022-12-07T07:40:30;3.70;99.90
50460;DHT22;36385;51.644;7.098;2022-12-07T07:42:56;3.60;99.90
50460;DHT22;36385;51.644;7.098;2022-12-07T07:45:23;3.60;99.90
50460;DHT22;36385;51.644;7.098;2022-12-07T07:47:50;3.60;99.90
50460;DHT22;36385;51.644;7.098;2022-12-07T07:50:16;3.60;99.90
50460;DHT22;36385;51.644;7.098;2022-12-07T07:52:42;3.50;99.90
50460;DHT22;36385;51.644;7.098;2022-12-07T07:55:08;3.60;99.90
50460;DHT22;36385;51.644;7.098;2022-12-07T07:57:35;3.60;99.90
50460;DHT22;36385;51.644;7.098;2022-12-07T08:00:03;3.60;99.90
50460;DHT22;36385;51.644;7.098;2022-12-07T08:02:29;3.60;99.90
50460;DHT22;36385;51.644;7.098;2022-12-07T08:04:55;3.70;99.90
50460;DHT22;36385;51.644;7.098;2022-12-07T08:07:21;3.70;99.90
50460;DHT22;36385;51.644;7.098;2022-12-07T08:09:46;3.60;99.90
50460;DHT22;36385;51.644;7.098;2022-12-07T08:12:12;3.70;99.90
50460;DHT22;36385;51.644;7.098;2022-12-07T08:14:38;3.80;99.90
50460;DHT22;36385;51.644;7.098;2022-12-07T08:17:03;3.90;99.90
50460;DHT22;36385;51.644;7.098;2022-12-07T08:19:29;3.90;99.90
50460;DHT22;36385;51.644;7.098;2022-12-07T08:21:55;3.90;99.90
50460;DHT22;36385;51.644;7.098;2022-12-07T08:24:22;3.90;99.90
50460;DHT22;36385;51.644;7.098;2022-12-07T08:26:47;4.00;99.90
50460;DHT22;36385;51.644;7.098;2022-12-07T08:29:15;4.10;99.90
50460;DHT22;36385;51.644;7.098;2022-12-07T08:31:41;4.10;99.90
50460;DHT22;36385;51.644;7.098;2022-12-07T08:34:06;4.10;99.90
50460;DHT22;36385;51.644;7.098;2022-12-07T08:36:32;4.20;99.90
50460;DHT22;36385;51.644;7.098;2022-12-07T08:38:58;4.20;99.90
50460;DHT22;36385;51.644;7.098;2022-12-07T08:41:23;4.20;99.90
50460;DHT22;36385;51.644;7.098;2022-12-07T08:43:50;4.20;99.90
50460;DHT22;36385;51.644;7.098;2022-12-07T08:46:36;4.20;99.90
50460;DHT22;36385;51.644;7.098;2022-12-07T08:51:32;4.30;99.90
50460;DHT22;36385;51.644;7.098;2022-12-07T08:54:00;4.20;99.90
50460;DHT22;36385;51.644;7.098;2022-12-07T08:56:27;4.20;99.90
50460;DHT22;36385;51.644;7.098;2022-12-07T08:58:53;4.30;99.90
50460;DHT22;36385;51.644;7.098;2022-12-07T09:01:18;4.40;99.90
50460;DHT22;36385;51.644;7.098;2022-12-07T09:03:44;4.40;99.90
50460;DHT22;36385;51.644;7.098;2022-12-07T09:06:10;4.50;99.90
50460;DHT22;36385;51.644;7.098;2022-12-07T09:08:46;4.50;99.90
50460;DHT22;36385;51.644;7.098;2022-12-07T09:11:12;4.60;99.90
50460;DHT22;36385;51.644;7.098;2022-12-07T09:13:38;4.60;99.90
50460;DHT22;36385;51.644;7.098;2022-12-07T09:16:04;4.70;99.90
50460;DHT22;36385;51.644;7.098;2022-12-07T09:18:30;4.70;99.90
50460;DHT22;36385;51.644;7.098;2022-12-07T09:20:56;4.70;99.90
50460;DHT22;36385;51.644;7.098;2022-12-07T09:23:22;4.70;99.90
50460;DHT22;36385;51.644;7.098;2022-12-07T09:25:47;4.70;99.90
50460;DHT22;36385;51.644;7.098;2022-12-07T09:28:13;4.70;99.90
50460;DHT22;36385;51.644;7.098;2022-12-07T09:30:39;4.80;99.90
50460;DHT22;36385;51.644;7.098;2022-12-07T09:33:10;4.80;99.90
50460;DHT22;36385;51.644;7.098;2022-12-07T09:35:35;5.00;99.90
50460;DHT22;36385;51.644;7.098;2022-12-07T09:38:01;5.00;99.90
50460;DHT22;36385;51.644;7.098;2022-12-07T09:40:28;5.10;99.90
50460;DHT22;36385;51.644;7.098;2022-12-07T09:42:55;5.10;99.90
50460;DHT22;36385;51.644;7.098;2022-12-07T09:45:33;5.20;99.90
50460;DHT22;36385;51.644;7.098;2022-12-07T09:47:59;5.20;99.90
50460;DHT22;36385;51.644;7.098;2022-12-07T09:50:28;5.20;99.90
50460;DHT22;36385;51.644;7.098;2022-12-07T09:53:01;5.30;99.90
50460;DHT22;36385;51.644;7.098;2022-12-07T09:55:29;5.20;99.90
50460;DHT22;36385;51.644;7.098;2022-12-07T09:57:57;5.10;99.90
50460;DHT22;36385;51.644;7.098;2022-12-07T10:00:23;5.10;99.90
50460;DHT22;36385;51.644;7.098;2022-12-07T10:05:35;5.10;99.90
50460;DHT22;36385;51.644;7.098;2022-12-07T10:08:03;5.20;99.90
50460;DHT22;36385;51.644;7.098;2022-12-07T10:10:31;5.30;99.90
50460;DHT22;36385;51.644;7.098;2022-12-07T10:13:11;5.40;99.90
50460;DHT22;36385;51.644;7.098;2022-12-07T10:15:51;5.60;99.90
50460;DHT22;36385;51.644;7.098;2022-12-07T10:23:35;5.70;99.90
50460;DHT22;36385;51.644;7.098;2022-12-07T10:26:34;5.70;99.90
50460;DHT22;36385;51.644;7.098;2022-12-07T10:29:24;5.60;99.90
50460;DHT22;36385;51.644;7.098;2022-12-07T10:34:40;5.80;99.90
50460;DHT22;36385;51.644;7.098;2022-12-07T10:37:18;5.80;99.90
50460;DHT22;36385;51.644;7.098;2022-12-07T10:40:23;5.80;99.90
50460;DHT22;36385;51.644;7.098;2022-12-07T10:49:27;6.00;99.90
50460;DHT22;36385;51.644;7.098;2022-12-07T10:52:02;6.00;99.90
50460;DHT22;36385;51.644;7.098;2022-12-07T11:05:28;5.90;99.90
50460;DHT22;36385;51.644;7.098;2022-12-07T11:12:56;5.80;99.90
50460;DHT22;36385;51.644;7.098;2022-12-07T11:24:32;6.00;99.90
50460;DHT22;36385;51.644;7.098;2022-12-07T11:29:49;6.10;99.90
50460;DHT22;36385;51.644;7.098;2022-12-07T11:37:38;6.20;99.90
50460;DHT22;36385;51.644;7.098;2022-12-07T11:40:35;6.20;99.90
50460;DHT22;36385;51.644;7.098;2022-12-07T11:43:05;6.20;99.90
50460;DHT22;36385;51.644;7.098;2022-12-07T11:45:34;6.30;99.90
50460;DHT22;36385;51.644;7.098;2022-12-07T11:48:05;6.30;99.90
50460;DHT22;36385;51.644;7.098;2022-12-07T11:50:57;6.40;99.90
50460;DHT22;36385;51.644;7.098;2022-12-07T11:53:51;6.40;99.90
50460;DHT22;36385;51.644;7.098;2022-12-07T11:56:21;6.50;99.90
50460;DHT22;36385;51.644;7.098;2022-12-07T12:06:39;6.60;99.90
50460;DHT22;36385;51.644;7.098;2022-12-07T12:09:33;6.50;99.90
50460;DHT22;36385;51.644;7.098;2022-12-07T12:20:41;6.70;99.90
50460;DHT22;36385;51.644;7.098;2022-12-07T12:23:56;6.70;99.90
50460;DHT22;36385;51.644;7.098;2022-12-07T12:26:02;6.90;99.90
50460;DHT22;36385;51.644;7.098;2022-12-07T12:29:21;7.00;99.90
50460;DHT22;36385;51.644;7.098;2022-12-07T12:33:55;7.10;99.90
50460;DHT22;36385;51.644;7.098;2022-12-07T12:54:21;6.90;99.90
50460;DHT22;36385;51.644;7.098;2022-12-07T12:57:22;6.90;99.90
50460;DHT22;36385;51.644;7.098;2022-12-07T13:15:55;6.70;99.90
50460;DHT22;36385;51.644;7.098;2022-12-07T13:18:40;6.60;99.90
50460;DHT22;36385;51.644;7.098;2022-12-07T13:31:36;6.40;99.90
50460;DHT22;36385;51.644;7.098;2022-12-07T13:34:05;6.40;99.90
50460;DHT22;36385;51.644;7.098;2022-12-07T13:36:33;6.50;99.90
50460;DHT22;36385;51.644;7.098;2022-12-07T13:39:18;6.60;99.90
50460;DHT22;36385;51.644;7.098;2022-12-07T13:41:45;6.70;99.90
50460;DHT22;36385;51.644;7.098;2022-12-07T13:44:15;6.60;99.90
50460;DHT22;36385;51.644;7.098;2022-12-07T13:49:22;6.50;99.90
50460;DHT22;36385;51.644;7.098;2022-12-07T13:51:49;6.60;99.90
50460;DHT22;36385;51.644;7.098;2022-12-07T13:54:15;6.50;99.90
50460;DHT22;36385;51.644;7.098;2022-12-07T13:56:41;6.50;99.90
50460;DHT22;36385;51.644;7.098;2022-12-07T13:59:25;6.50;99.90
50460;DHT22;36385;51.644;7.098;2022-12-07T14:01:53;6.40;99.90
50460;DHT22;36385;51.644;7.098;2022-12-07T14:04:32;6.40;99.90
50460;DHT22;36385;51.644;7.098;2022-12-07T14:06:58;6.40;99.90
50460;DHT22;36385;51.644;7.098;2022-12-07T14:09:26;6.30;99.90
50460;DHT22;36385;51.644;7.098;2022-12-07T14:11:54;6.30;99.90
50460;DHT22;36385;51.644;7.098;2022-12-07T14:14:23;6.30;99.90
50460;DHT22;36385;51.644;7.098;2022-12-07T14:17:19;6.30;99.90
50460;DHT22;36385;51.644;7.098;2022-12-07T14:24:49;6.40;99.90
50460;DHT22;36385;51.644;7.098;2022-12-07T14:27:23;6.40;99.90
50460;DHT22;36385;51.644;7.098;2022-12-07T14:29:51;6.40;99.90
50460;DHT22;36385;51.644;7.098;2022-12-07T14:32:21;6.40;99.90
50460;DHT22;36385;51.644;7.098;2022-12-07T14:35:03;6.50;99.90
50460;DHT22;36385;51.644;7.098;2022-12-07T14:37:29;6.40;99.90
50460;DHT22;36385;51.644;7.098;2022-12-07T14:39:56;6.40;99.90
50460;DHT22;36385;51.644;7.098;2022-12-07T14:42:26;6.30;99.90
50460;DHT22;36385;51.644;7.098;2022-12-07T14:44:56;6.30;99.90
50460;DHT22;36385;51.644;7.098;2022-12-07T14:47:22;6.30;99.90
50460;DHT22;36385;51.644;7.098;2022-12-07T14:49:47;6.10;99.90
50460;DHT22;36385;51.644;7.098;2022-12-07T14:52:17;6.10;99.90
50460;DHT22;36385;51.644;7.098;2022-12-07T14:54:44;6.10;99.90
50460;DHT22;36385;51.644;7.098;2022-12-07T14:57:10;6.00;99.90
50460;DHT22;36385;51.644;7.098;2022-12-07T14:59:36;6.00;99.90
50460;DHT22;36385;51.644;7.098;2022-12-07T15:02:03;5.90;99.90
50460;DHT22;36385;51.644;7.098;2022-12-07T15:04:28;5.70;99.90
50460;DHT22;36385;51.644;7.098;2022-12-07T15:06:59;5.70;99.90
50460;DHT22;36385;51.644;7.098;2022-12-07T15:09:25;5.60;99.90
50460;DHT22;36385;51.644;7.098;2022-12-07T15:11:51;5.60;99.90
50460;DHT22;36385;51.644;7.098;2022-12-07T15:14:16;5.50;99.90
50460;DHT22;36385;51.644;7.098;2022-12-07T15:16:43;5.50;99.90
50460;DHT22;36385;51.644;7.098;2022-12-07T15:19:20;5.40;99.90
50460;DHT22;36385;51.644;7.098;2022-12-07T15:21:51;5.50;99.90
50460;DHT22;36385;51.644;7.098;2022-12-07T15:24:18;5.40;99.90
50460;DHT22;36385;51.644;7.098;2022-12-07T15:26:43;5.40;99.90
50460;DHT22;36385;51.644;7.098;2022-12-07T15:29:10;5.40;99.90
50460;DHT22;36385;51.644;7.098;2022-12-07T15:31:36;5.30;99.90
50460;DHT22;36385;51.644;7.098;2022-12-07T15:34:03;5.20;99.90
50460;DHT22;36385;51.644;7.098;2022-12-07T15:36:31;5.20;99.90
50460;DHT22;36385;51.644;7.098;2022-12-07T15:38:57;5.20;99.90
50460;DHT22;36385;51.644;7.098;2022-12-07T15:41:23;5.20;99.90
50460;DHT22;36385;51.644;7.098;2022-12-07T15:43:49;5.10;99.90
50460;DHT22;36385;51.644;7.098;2022-12-07T15:46:36;5.10;99.90
50460;DHT22;36385;51.644;7.098;2022-12-07T15:49:03;5.10;99.90
50460;DHT22;36385;51.644;7.098;2022-12-07T15:51:29;5.00;99.90
50460;DHT22;36385;51.644;7.098;2022-12-07T15:53:57;5.10;99.90
50460;DHT22;36385;51.644;7.098;2022-12-07T15:56:23;5.10;99.90
50460;DHT22;36385;51.644;7.098;2022-12-07T15:58:49;5.10;99.90
50460;DHT22;36385;51.644;7.098;2022-12-07T16:01:16;5.10;99.90
50460;DHT22;36385;51.644;7.098;2022-12-07T16:03:42;5.20;99.90
50460;DHT22;36385;51.644;7.098;2022-12-07T16:06:09;5.20;99.90
50460;DHT22;36385;51.644;7.098;2022-12-07T16:08:34;5.30;99.90
50460;DHT22;36385;51.644;7.098;2022-12-07T16:11:05;5.30;99.90
50460;DHT22;36385;51.644;7.098;2022-12-07T16:13:30;5.30;99.90
50460;DHT22;36385;51.644;7.098;2022-12-07T16:15:56;5.20;99.90
50460;DHT22;36385;51.644;7.098;2022-12-07T16:18:22;5.30;99.90
50460;DHT22;36385;51.644;7.098;2022-12-07T16:20:48;5.20;99.90
50460;DHT22;36385;51.644;7.098;2022-12-07T16:23:14;5.30;99.90
50460;DHT22;36385;51.644;7.098;2022-12-07T16:25:41;5.30;99.90
50460;DHT22;36385;51.644;7.098;2022-12-07T16:28:07;5.30;99.90
50460;DHT22;36385;51.644;7.098;2022-12-07T16:30:33;5.30;99.90
50460;DHT22;36385;51.644;7.098;2022-12-07T16:32:59;5.30;99.90
50460;DHT22;36385;51.644;7.098;2022-12-07T16:35:25;5.30;99.90
50460;DHT22;36385;51.644;7.098;2022-12-07T16:37:50;5.30;99.90
50460;DHT22;36385;51.644;7.098;2022-12-07T16:40:16;5.30;99.90
50460;DHT22;36385;51.644;7.098;2022-12-07T16:42:41;5.20;99.90
50460;DHT22;36385;51.644;7.098;2022-12-07T16:45:07;5.20;99.90
50460;DHT22;36385;51.644;7.098;2022-12-07T16:47:37;5.30;99.90
50460;DHT22;36385;51.644;7.098;2022-12-07T16:50:03;5.30;99.90
50460;DHT22;36385;51.644;7.098;2022-12-07T16:52:29;5.30;99.90
50460;DHT22;36385;51.644;7.098;2022-12-07T16:54:55;5.30;99.90
50460;DHT22;36385;51.644;7.098;2022-12-07T16:57:20;5.30;99.90
50460;DHT22;36385;51.644;7.098;2022-12-07T16:59:46;5.30;99.90
50460;DHT22;36385;51.644;7.098;2022-12-07T17:02:12;5.30;99.90
50460;DHT22;36385;51.644;7.098;2022-12-07T17:04:38;5.30;99.90
50460;DHT22;36385;51.644;7.098;2022-12-07T17:07:05;5.30;99.90
50460;DHT22;36385;51.644;7.098;2022-12-07T17:09:31;5.30;99.90
50460;DHT22;36385;51.644;7.098;2022-12-07T17:11:57;5.30;99.90
50460;DHT22;36385;51.644;7.098;2022-12-07T17:14:23;5.30;99.90
50460;DHT22;36385;51.644;7.098;2022-12-07T17:17:07;5.40;99.90
50460;DHT22;36385;51.644;7.098;2022-12-07T17:19:33;5.40;99.90
50460;DHT22;36385;51.644;7.098;2022-12-07T17:21:58;5.20;99.90
50460;DHT22;36385;51.644;7.098;2022-12-07T17:24:24;5.20;99.90
50460;DHT22;36385;51.644;7.098;2022-12-07T17:26:50;5.10;99.90
50460;DHT22;36385;51.644;7.098;2022-12-07T17:29:17;5.10;99.90
50460;DHT22;36385;51.644;7.098;2022-12-07T17:31:44;5.10;99.90
50460;DHT22;36385;51.644;7.098;2022-12-07T17:34:11;5.10;99.90
50460;DHT22;36385;51.644;7.098;2022-12-07T17:36:37;5.00;99.90
50460;DHT22;36385;51.644;7.098;2022-12-07T17:39:11;5.00;99.90
50460;DHT22;36385;51.644;7.098;2022-12-07T17:41:39;5.00;99.90
50460;DHT22;36385;51.644;7.098;2022-12-07T17:44:23;5.00;99.90
50460;DHT22;36385;51.644;7.098;2022-12-07T17:46:51;5.00;99.90
50460;DHT22;36385;51.644;7.098;2022-12-07T17:49:20;5.00;99.90
50460;DHT22;36385;51.644;7.098;2022-12-07T17:51:46;5.00;99.90
50460;DHT22;36385;51.644;7.098;2022-12-07T17:54:30;5.00;99.90
50460;DHT22;36385;51.644;7.098;2022-12-07T17:56:56;4.90;99.90
50460;DHT22;36385;51.644;7.098;2022-12-07T17:59:22;4.90;99.90
50460;DHT22;36385;51.644;7.098;2022-12-07T18:01:48;4.80;99.90
50460;DHT22;36385;51.644;7.098;2022-12-07T18:04:14;4.80;99.90
50460;DHT22;36385;51.644;7.098;2022-12-07T18:06:39;4.80;99.90
50460;DHT22;36385;51.644;7.098;2022-12-07T18:09:06;4.80;99.90
50460;DHT22;36385;51.644;7.098;2022-12-07T18:11:32;4.80;99.90
50460;DHT22;36385;51.644;7.098;2022-12-07T18:13:58;4.90;99.90
50460;DHT22;36385;51.644;7.098;2022-12-07T18:16:26;4.90;99.90
50460;DHT22;36385;51.644;7.098;2022-12-07T18:18:52;4.90;99.90
50460;DHT22;36385;51.644;7.098;2022-12-07T18:21:21;4.90;99.90
50460;DHT22;36385;51.644;7.098;2022-12-07T18:23:48;4.90;99.90
50460;DHT22;36385;51.644;7.098;2022-12-07T18:26:16;4.80;99.90